Alt de Juncos, Puerto Rico
Current Conditions -  °F | °C
As of 6:50 PM on Monday 22 Dec 2014 (Local Time) from TJBQ Reporting Station
Light Rain Light Rain  
Wind Chill: 79°   Ceiling: 2800
Heat Index: 82°   Visibility: 10mi
Dew Point: 73°   Wind: 7mph
Humidity: 83%   Direction: 100°E
Pressure: 30.01"   Gusts: NA
Location:  18.4739°N, 66.7295°W
Report Text: TJBQ 222250Z 10006KT 10SM -RA SCT018 BKN028 26/23 A3001 RMK RWY08 ATIS C
Loading
Personal Weather Stations






























Interactive Weather Map New forecast layout! Learn more

10-Day Weather Forecast

Advertisements
Track Severe Weather on mobile